Time;durP1;ratioP1;P1;durP2;ratioP2;P2;SDS_P1;SDS_P2;PMS_P1;PMS_P2;Temp;Humidity;BMP_temperature;BMP_pressure;BME280_temperature;BME280_humidity;BME280_pressure;Samples;Min_cycle;Max_cycle;Signal;HPM_P1;HPM_P2
2022/12/27 00:02:47;;;;;;;1.67;0.70;;;11.30;46.50;;;;;;10464738;28;20267;-76
2022/12/27 00:07:50;;;;;;;1.23;0.70;;;11.30;46.00;;;;;;10466243;28;20289;-76
2022/12/27 00:12:54;;;;;;;0.80;0.80;;;11.30;46.00;;;;;;10471070;28;20306;-67
2022/12/27 00:17:58;;;;;;;1.47;0.90;;;11.20;45.70;;;;;;10475439;28;20763;-68
2022/12/27 00:23:01;;;;;;;1.43;0.80;;;11.20;45.50;;;;;;10473732;28;20232;-67
2022/12/27 00:28:05;;;;;;;1.03;0.70;;;11.20;45.40;;;;;;10475133;28;20228;-68
2022/12/27 00:33:09;;;;;;;1.33;0.80;;;11.10;45.20;;;;;;10475968;28;20224;-71
2022/12/27 00:38:12;;;;;;;0.80;0.80;;;11.00;44.60;;;;;;10478489;28;20241;-76
2022/12/27 00:43:15;;;;;;;2.40;0.70;;;11.00;45.10;;;;;;10474005;28;20217;-76
2022/12/27 00:48:20;;;;;;;0.70;0.70;;;10.90;44.90;;;;;;10467472;28;20224;-76
2022/12/27 00:53:23;;;;;;;1.00;0.90;;;10.90;44.40;;;;;;10465782;28;20225;-76
2022/12/27 00:58:27;;;;;;;1.33;0.73;;;10.90;44.40;;;;;;10481428;28;21269;-69
2022/12/27 01:03:31;;;;;;;1.00;0.73;;;10.80;44.30;;;;;;10480516;28;20241;-69
2022/12/27 01:08:35;;;;;;;0.97;0.70;;;10.80;44.00;;;;;;10476599;28;20229;-68
2022/12/27 01:13:38;;;;;;;1.07;0.70;;;10.80;43.90;;;;;;10479545;28;20235;-68
2022/12/27 01:18:44;;;;;;;0.63;0.63;;;10.70;43.60;;;;;;10475541;28;20228;-68
2022/12/27 01:23:47;;;;;;;0.60;0.60;;;10.60;43.50;;;;;;10482232;28;20712;-67
2022/12/27 01:28:51;;;;;;;0.97;0.80;;;10.50;43.80;;;;;;10475173;28;20240;-76
2022/12/27 01:33:57;;;;;;;0.70;0.70;;;10.50;43.60;;;;;;10476344;28;20244;-67
2022/12/27 01:39:01;;;;;;;0.73;0.70;;;10.40;43.20;;;;;;10478337;28;20262;-67
2022/12/27 01:44:37;;;;;;;0.80;0.80;;;10.40;43.60;;;;;;10474741;28;20220;-68
2022/12/27 01:49:46;;;;;;;2.13;0.70;;;10.40;42.60;;;;;;10477761;28;20278;-67
2022/12/27 01:54:49;;;;;;;2.27;0.70;;;10.30;43.10;;;;;;10479771;28;20785;-71
2022/12/27 01:59:53;;;;;;;0.93;0.70;;;10.30;43.50;;;;;;10473559;28;22112;-69
2022/12/27 02:04:57;;;;;;;0.90;0.80;;;10.30;43.60;;;;;;10477243;28;20705;-69
2022/12/27 02:10:03;;;;;;;1.20;0.77;;;10.30;43.70;;;;;;10477696;28;20228;-68
2022/12/27 02:15:06;;;;;;;0.70;0.70;;;10.30;43.70;;;;;;10473429;28;20235;-69
2022/12/27 02:20:14;;;;;;;0.77;0.60;;;10.30;43.30;;;;;;10472833;28;20228;-68
2022/12/27 02:25:29;;;;;;;0.80;0.80;;;10.30;42.60;;;;;;10476375;28;20220;-69
2022/12/27 02:30:35;;;;;;;0.90;0.83;;;10.20;42.00;;;;;;10474687;28;20302;-68
2022/12/27 02:35:42;;;;;;;0.57;0.57;;;10.20;42.50;;;;;;10473696;28;20631;-69
2022/12/27 02:57:24;;;;;;;0.97;0.93;;;9.90;42.70;;;;;;10446581;28;20235;-77
2022/12/27 03:08:04;;;;;;;0.70;0.70;;;9.70;43.00;;;;;;10475558;28;20253;-79
2022/12/27 03:19:12;;;;;;;1.10;0.97;;;9.60;43.10;;;;;;10461374;28;20235;-76
2022/12/27 03:35:10;;;;;;;1.53;0.90;;;9.40;43.60;;;;;;10460900;28;20244;-77
2022/12/27 03:40:19;;;;;;;0.67;0.67;;;9.30;42.60;;;;;;10454257;28;20229;-78
2022/12/27 03:46:32;;;;;;;1.60;0.80;;;9.20;42.90;;;;;;10469001;28;20244;-78
2022/12/27 03:50:53;;;;;;;0.80;0.80;;;9.10;43.00;;;;;;10466518;28;20284;-72
2022/12/27 03:55:56;;;;;;;1.23;0.80;;;9.00;42.20;;;;;;10475491;28;21012;-72
2022/12/27 04:01:00;;;;;;;1.00;0.80;;;8.90;42.70;;;;;;10470987;28;20609;-73
2022/12/27 04:06:06;;;;;;;1.23;0.77;;;8.80;42.40;;;;;;10474796;28;20282;-72
2022/12/27 04:37:55;;;;;;;1.30;0.90;;;8.40;42.40;;;;;;10477858;28;20610;-76
2022/12/27 05:04:35;;;;;;;3.60;0.90;;;8.00;42.50;;;;;;10481263;28;20228;-68
2022/12/27 05:14:59;;;;;;;1.90;1.00;;;7.80;42.50;;;;;;10480739;28;20296;-68
2022/12/27 05:20:02;;;;;;;1.70;1.10;;;7.70;42.90;;;;;;10475533;28;20233;-68
2022/12/27 05:30:32;;;;;;;1.80;1.60;;;7.50;42.90;;;;;;10480913;28;20224;-68
2022/12/27 05:35:35;;;;;;;2.50;1.47;;;7.40;43.20;;;;;;10476744;28;20228;-68
2022/12/27 05:40:40;;;;;;;2.53;1.20;;;7.30;43.20;;;;;;10481085;28;20224;-67
2022/12/27 05:45:43;;;;;;;1.10;1.00;;;7.20;43.20;;;;;;10479652;28;20232;-68
2022/12/27 05:50:46;;;;;;;1.47;1.03;;;7.20;43.40;;;;;;10477258;28;20243;-68
2022/12/27 05:55:55;;;;;;;2.87;1.17;;;7.20;43.30;;;;;;10474993;28;20228;-68
2022/12/27 06:00:58;;;;;;;1.10;0.93;;;7.10;42.70;;;;;;10480336;28;20236;-68
2022/12/27 06:06:02;;;;;;;3.00;1.20;;;7.10;43.10;;;;;;10474011;28;20282;-67
2022/12/27 06:11:09;;;;;;;1.63;1.50;;;7.10;43.00;;;;;;10477451;28;20232;-68
2022/12/27 06:16:13;;;;;;;2.60;1.40;;;7.00;42.80;;;;;;10478625;28;20233;-68
2022/12/27 06:21:18;;;;;;;1.97;1.27;;;7.00;43.10;;;;;;10476546;28;20240;-68
2022/12/27 06:26:25;;;;;;;1.57;1.30;;;6.90;43.00;;;;;;10473346;28;20232;-68
2022/12/27 06:31:29;;;;;;;2.13;1.73;;;6.90;42.90;;;;;;10474221;28;20262;-68
2022/12/27 06:36:32;;;;;;;1.70;1.60;;;6.90;43.00;;;;;;10479026;28;20236;-68
2022/12/27 06:41:37;;;;;;;3.47;2.93;;;6.80;43.20;;;;;;10476158;28;20600;-68
2022/12/27 06:46:40;;;;;;;2.97;2.57;;;6.80;43.00;;;;;;10477904;28;20357;-68
2022/12/27 06:51:44;;;;;;;1.60;1.50;;;6.80;43.10;;;;;;10473836;28;20716;-68
2022/12/27 06:56:48;;;;;;;1.97;1.77;;;6.80;42.80;;;;;;10475791;28;20232;-68
2022/12/27 07:01:51;;;;;;;2.40;2.10;;;6.70;42.50;;;;;;10471635;28;20985;-68
2022/12/27 07:06:55;;;;;;;4.50;3.13;;;6.60;42.70;;;;;;10475379;28;20235;-68
2022/12/27 07:12:00;;;;;;;2.73;2.03;;;6.40;42.90;;;;;;10474046;28;20224;-68
2022/12/27 07:17:03;;;;;;;2.73;1.80;;;6.30;42.90;;;;;;10476401;28;20236;-69
2022/12/27 07:22:06;;;;;;;3.43;2.00;;;6.20;43.10;;;;;;10475965;28;20232;-68
2022/12/27 07:27:10;;;;;;;3.37;2.23;;;6.00;44.00;;;;;;10475816;28;20231;-68
2022/12/27 07:32:14;;;;;;;4.30;2.37;;;5.90;43.50;;;;;;10476157;28;20601;-69
2022/12/27 07:37:17;;;;;;;2.03;1.70;;;5.80;43.50;;;;;;10475277;28;20239;-69
2022/12/27 07:42:21;;;;;;;2.50;1.87;;;5.80;43.90;;;;;;10478897;28;20231;-69
2022/12/27 07:47:24;;;;;;;3.17;1.83;;;5.80;44.20;;;;;;10479802;28;20273;-69
2022/12/27 07:52:27;;;;;;;2.03;1.83;;;5.70;44.20;;;;;;10483021;28;20242;-69
2022/12/27 07:57:32;;;;;;;2.50;1.63;;;5.80;44.50;;;;;;10479946;28;20224;-69
2022/12/27 08:02:35;;;;;;;1.70;1.60;;;5.90;44.60;;;;;;10473519;28;20734;-70
2022/12/27 08:07:39;;;;;;;1.93;1.73;;;6.00;44.60;;;;;;10480286;28;20252;-70
2022/12/27 08:12:44;;;;;;;2.03;1.70;;;6.00;44.40;;;;;;10483171;28;20235;-68
2022/12/27 08:17:47;;;;;;;2.80;1.40;;;6.10;44.50;;;;;;10480462;28;20286;-68
2022/12/27 08:22:50;;;;;;;2.20;1.53;;;6.20;44.60;;;;;;10480763;28;20580;-68
2022/12/27 08:28:02;;;;;;;3.30;2.10;;;6.40;44.80;;;;;;10484147;28;20285;-68
2022/12/27 08:33:06;;;;;;;3.87;1.83;;;6.50;44.30;;;;;;10480698;28;20228;-68
2022/12/27 08:38:09;;;;;;;2.67;1.27;;;6.70;44.60;;;;;;10482338;28;20861;-68
2022/12/27 08:43:14;;;;;;;1.67;1.23;;;6.90;44.60;;;;;;10477760;28;20436;-68
2022/12/27 08:48:17;;;;;;;2.80;1.43;;;7.10;44.40;;;;;;10482468;28;20239;-68
2022/12/27 08:53:20;;;;;;;2.77;1.00;;;7.30;44.60;;;;;;10480101;28;20791;-75
2022/12/27 08:58:25;;;;;;;1.87;1.07;;;7.50;44.40;;;;;;10470132;28;20742;-75
2022/12/27 09:03:28;;;;;;;1.90;1.20;;;7.70;44.10;;;;;;10466330;28;20221;-76
2022/12/27 09:08:31;;;;;;;3.53;2.00;;;8.00;44.50;;;;;;10474689;28;20578;-71
2022/12/27 09:13:35;;;;;;;1.23;1.17;;;8.20;44.20;;;;;;10477581;28;20231;-71
2022/12/27 09:18:39;;;;;;;1.77;1.10;;;8.40;43.80;;;;;;10478560;28;20232;-72
2022/12/27 09:23:42;;;;;;;2.87;1.30;;;8.50;43.90;;;;;;10474764;28;20224;-76
2022/12/27 09:28:47;;;;;;;1.50;1.40;;;8.70;44.00;;;;;;10461727;28;20233;-76
2022/12/27 09:33:50;;;;;;;10.50;6.73;;;8.80;43.40;;;;;;10473432;28;20231;-78
2022/12/27 09:38:55;;;;;;;2.03;1.63;;;9.00;43.50;;;;;;10460618;28;20236;-77
2022/12/27 09:44:04;;;;;;;2.03;1.20;;;9.00;43.50;;;;;;10470625;28;20814;-76
2022/12/27 09:49:10;;;;;;;2.63;1.20;;;9.20;42.90;;;;;;10458990;28;20279;-76
2022/12/27 09:54:19;;;;;;;3.67;1.20;;;9.30;43.30;;;;;;10463401;28;20237;-77
2022/12/27 09:59:30;;;;;;;1.03;0.90;;;9.40;42.90;;;;;;10465699;28;20650;-77
2022/12/27 10:04:36;;;;;;;0.90;0.90;;;9.60;42.30;;;;;;10464550;28;20221;-77
2022/12/27 10:10:08;;;;;;;0.80;0.80;;;9.70;42.50;;;;;;10474472;28;20353;-77
2022/12/27 10:15:23;;;;;;;2.83;1.00;;;9.90;41.90;;;;;;10459248;28;20245;-77
2022/12/27 10:20:35;;;;;;;1.00;0.90;;;10.00;39.90;;;;;;10459607;28;20232;-77
2022/12/27 10:25:40;;;;;;;1.50;0.90;;;10.00;40.10;;;;;;10460436;28;20244;-77
2022/12/27 10:30:46;;;;;;;1.90;1.10;;;10.10;41.30;;;;;;10462658;28;20645;-72
2022/12/27 10:35:49;;;;;;;2.47;1.00;;;10.20;40.80;;;;;;10472746;28;20232;-72
2022/12/27 10:40:57;;;;;;;1.13;0.93;;;10.30;41.10;;;;;;10474721;28;20239;-72
2022/12/27 10:46:12;;;;;;;0.93;0.90;;;10.40;40.30;;;;;;10473299;28;20741;-72
2022/12/27 10:51:15;;;;;;;1.57;1.10;;;10.50;40.20;;;;;;10475896;28;21736;-72
2022/12/27 10:56:27;;;;;;;2.13;0.93;;;10.60;40.80;;;;;;10473670;28;20240;-73
2022/12/27 11:01:33;;;;;;;2.33;1.07;;;10.70;39.90;;;;;;10473107;28;20232;-72
2022/12/27 11:06:37;;;;;;;3.07;1.30;;;10.80;40.60;;;;;;10476459;28;20720;-72
2022/12/27 11:11:40;;;;;;;1.13;0.97;;;10.80;40.60;;;;;;10475845;28;20220;-68
2022/12/27 11:16:45;;;;;;;1.37;1.13;;;10.90;40.30;;;;;;10475020;28;20217;-69
2022/12/27 11:21:49;;;;;;;1.57;1.13;;;10.90;39.90;;;;;;10474367;28;20259;-69
2022/12/27 11:26:56;;;;;;;1.47;0.97;;;10.90;40.40;;;;;;10475904;28;20631;-68
2022/12/27 11:32:07;;;;;;;2.13;0.90;;;10.90;39.80;;;;;;10473803;28;20232;-69
2022/12/27 11:37:14;;;;;;;2.03;1.00;;;10.90;38.30;;;;;;10475744;28;20631;-69
2022/12/27 11:42:24;;;;;;;1.10;0.90;;;10.90;39.10;;;;;;10472549;28;20251;-69
2022/12/27 11:47:36;;;;;;;3.43;1.00;;;11.00;38.50;;;;;;10475340;28;20282;-69
2022/12/27 11:52:52;;;;;;;2.33;1.07;;;11.00;37.90;;;;;;10472880;28;20239;-68
2022/12/27 11:58:17;;;;;;;1.93;0.90;;;10.90;37.60;;;;;;10472930;28;20236;-69
2022/12/27 12:03:54;;;;;;;1.73;0.73;;;11.00;37.20;;;;;;10474088;28;20657;-69
2022/12/27 12:09:20;;;;;;;2.17;1.10;;;11.00;37.00;;;;;;10463088;28;20232;-70
2022/12/27 12:14:57;;;;;;;2.03;1.17;;;10.90;37.20;;;;;;10473230;28;20220;-69
2022/12/27 12:20:33;;;;;;;3.20;1.00;;;10.90;37.20;;;;;;10473299;28;20247;-69
2022/12/27 12:26:05;;;;;;;1.67;0.97;;;10.90;37.50;;;;;;10468581;28;20283;-71
2022/12/27 12:31:20;;;;;;;2.90;1.00;;;10.90;37.50;;;;;;10480589;28;20228;-71
2022/12/27 12:36:45;;;;;;;2.13;0.93;;;10.90;37.60;;;;;;10480214;28;20715;-71
2022/12/27 12:42:14;;;;;;;0.97;0.93;;;11.00;36.90;;;;;;10481472;28;20321;-72
2022/12/27 12:47:39;;;;;;;0.90;0.90;;;11.00;36.90;;;;;;10480930;28;20244;-73
2022/12/27 12:52:54;;;;;;;1.23;0.80;;;11.00;36.90;;;;;;10477845;28;20235;-71
2022/12/27 12:58:11;;;;;;;2.20;1.20;;;11.10;37.40;;;;;;10479007;28;20874;-71
2022/12/27 13:03:37;;;;;;;1.43;1.10;;;11.10;36.20;;;;;;10479801;28;20235;-71
2022/12/27 13:08:47;;;;;;;1.47;1.10;;;11.00;36.50;;;;;;10479737;28;20232;-69
2022/12/27 13:14:16;;;;;;;1.80;1.07;;;11.00;36.70;;;;;;10475581;28;20224;-69
2022/12/27 13:19:39;;;;;;;0.90;0.80;;;11.00;36.50;;;;;;10476282;28;20233;-70
2022/12/27 13:24:54;;;;;;;3.00;1.77;;;10.90;35.70;;;;;;10479109;28;20255;-69
2022/12/27 13:30:13;;;;;;;2.07;1.80;;;10.90;36.90;;;;;;10478918;28;20228;-69
2022/12/27 13:35:29;;;;;;;1.90;1.60;;;10.90;36.60;;;;;;10477179;28;20228;-69
2022/12/27 13:40:57;;;;;;;2.97;1.53;;;11.00;36.30;;;;;;10478610;28;20227;-69
2022/12/27 13:46:16;;;;;;;1.57;1.17;;;10.90;35.90;;;;;;10468342;28;20733;-72
2022/12/27 13:51:37;;;;;;;2.10;1.60;;;10.90;36.30;;;;;;10477867;28;20220;-72
2022/12/27 13:56:52;;;;;;;2.13;1.50;;;10.80;36.10;;;;;;10478204;28;20232;-73
2022/12/27 14:07:52;;;;;;;2.80;1.43;;;10.80;36.20;;;;;;10422538;27;21159;-73
2022/12/27 14:12:58;;;;;;;3.30;1.40;;;10.80;36.50;;;;;;10394581;28;20269;-73
2022/12/27 14:18:23;;;;;;;1.20;1.10;;;10.70;37.30;;;;;;10406017;28;20233;-72
2022/12/27 14:23:55;;;;;;;1.40;1.30;;;10.70;36.40;;;;;;10383298;28;20228;-72
2022/12/27 14:29:30;;;;;;;1.53;1.20;;;10.60;36.10;;;;;;10370024;28;20233;-72
2022/12/27 14:35:13;;;;;;;4.43;1.10;;;10.60;36.50;;;;;;10362494;28;20248;-72
2022/12/27 14:40:52;;;;;;;1.60;1.10;;;10.50;36.60;;;;;;10360402;28;20228;-72
2022/12/27 14:46:32;;;;;;;2.30;1.03;;;10.50;36.40;;;;;;10374998;28;20758;-72
2022/12/27 14:52:33;;;;;;;3.03;2.00;;;10.40;36.50;;;;;;10401669;28;20309;-72
2022/12/27 14:57:46;;;;;;;1.97;1.50;;;10.40;36.80;;;;;;10309136;28;20231;-72
2022/12/27 15:03:04;;;;;;;2.27;1.40;;;10.40;37.00;;;;;;10375762;28;20229;-72
2022/12/27 15:08:31;;;;;;;3.83;2.40;;;10.40;36.90;;;;;;10397520;28;20218;-72
2022/12/27 15:13:52;;;;;;;9.67;5.93;;;10.30;37.10;;;;;;10395802;28;20609;-69
2022/12/27 15:19:10;;;;;;;6.67;4.87;;;10.30;36.90;;;;;;10370255;28;20591;-69
2022/12/27 15:24:27;;;;;;;5.13;4.20;;;10.40;37.20;;;;;;10369711;28;20241;-77
2022/12/27 15:29:43;;;;;;;9.77;7.30;;;10.30;37.20;;;;;;10369215;28;20901;-77
2022/12/27 15:34:58;;;;;;;6.83;4.70;;;10.20;37.20;;;;;;10376178;28;20222;-77
2022/12/27 15:40:01;;;;;;;7.17;4.17;;;10.10;37.00;;;;;;10372268;28;20226;-76
2022/12/27 15:45:18;;;;;;;4.93;2.50;;;10.00;37.80;;;;;;10362487;28;20808;-75
2022/12/27 15:50:34;;;;;;;13.20;10.93;;;9.90;37.90;;;;;;10367912;28;20583;-76
2022/12/27 15:56:06;;;;;;;13.77;10.97;;;9.80;37.50;;;;;;10362859;28;20980;-76
2022/12/27 16:01:29;;;;;;;10.57;8.80;;;9.60;37.40;;;;;;10366975;28;20918;-76
2022/12/27 16:06:49;;;;;;;6.63;5.73;;;9.50;37.70;;;;;;10373324;28;20313;-76
2022/12/27 16:12:02;;;;;;;6.20;5.20;;;9.30;38.00;;;;;;10373467;28;20225;-76
2022/12/27 16:17:31;;;;;;;8.13;5.73;;;9.30;38.30;;;;;;10370001;28;20276;-75
2022/12/27 16:22:38;;;;;;;6.50;5.90;;;9.20;38.20;;;;;;10368472;28;21172;-76
2022/12/27 16:27:43;;;;;;;6.03;5.27;;;9.20;38.60;;;;;;10366439;28;20226;-76
2022/12/27 16:32:50;;;;;;;6.27;5.67;;;9.20;38.70;;;;;;10371589;28;20245;-76
2022/12/27 16:37:54;;;;;;;9.53;6.33;;;9.10;38.60;;;;;;10369026;28;20252;-70
2022/12/27 16:43:45;;;;;;;8.30;6.43;;;9.00;38.60;;;;;;10362753;28;20281;-69
2022/12/27 16:49:31;;;;;;;8.47;6.23;;;8.90;38.40;;;;;;10364631;28;20221;-69
2022/12/27 16:54:47;;;;;;;7.90;6.30;;;8.70;37.90;;;;;;10360529;28;20224;-71
2022/12/27 16:59:59;;;;;;;14.53;9.40;;;8.60;38.30;;;;;;10374122;28;20824;-71
2022/12/27 17:05:25;;;;;;;13.57;9.97;;;8.40;38.60;;;;;;10363325;28;20233;-71
2022/12/27 17:10:34;;;;;;;16.53;11.60;;;8.40;39.10;;;;;;10367206;28;20273;-71
2022/12/27 17:15:42;;;;;;;14.53;10.53;;;8.30;39.70;;;;;;10370190;28;20257;-71
2022/12/27 17:21:00;;;;;;;21.77;15.97;;;8.20;39.40;;;;;;10362421;28;20796;-71
2022/12/27 17:26:19;;;;;;;20.77;17.97;;;8.20;39.00;;;;;;10370000;28;20226;-71
2022/12/27 17:31:29;;;;;;;17.63;15.73;;;8.10;39.00;;;;;;10366799;28;20237;-71
2022/12/27 17:36:44;;;;;;;16.87;14.00;;;8.10;39.30;;;;;;10364408;28;20313;-71
2022/12/27 17:47:35;;;;;;;19.67;14.80;;;8.00;39.30;;;;;;10370984;28;20230;-72
2022/12/27 17:58:03;;;;;;;14.10;10.93;;;7.90;39.20;;;;;;10366941;28;20225;-70
2022/12/27 18:03:08;;;;;;;16.90;13.10;;;7.90;39.20;;;;;;10364210;28;20225;-70
2022/12/27 18:08:24;;;;;;;10.93;9.80;;;7.90;39.20;;;;;;10365522;28;20230;-69
2022/12/27 18:13:31;;;;;;;12.73;10.57;;;7.90;39.20;;;;;;10364367;28;20225;-70
2022/12/27 18:18:34;;;;;;;11.83;9.10;;;7.90;39.20;;;;;;10362210;28;20229;-69
2022/12/27 18:23:41;;;;;;;11.53;9.17;;;7.80;39.10;;;;;;10369751;28;20222;-75
2022/12/27 18:28:46;;;;;;;8.47;7.60;;;7.70;39.00;;;;;;10363506;28;20241;-75
2022/12/27 18:33:51;;;;;;;8.70;7.80;;;7.70;39.00;;;;;;10367263;28;20225;-75
2022/12/27 18:38:59;;;;;;;10.97;8.50;;;7.70;39.00;;;;;;10364107;28;20237;-75
2022/12/27 18:44:02;;;;;;;11.63;9.47;;;7.70;39.00;;;;;;10374298;28;20222;-70
2022/12/27 18:49:06;;;;;;;16.00;12.77;;;7.70;39.00;;;;;;10364190;28;20317;-70
2022/12/27 18:54:29;;;;;;;14.10;11.57;;;7.60;38.90;;;;;;10372027;28;20231;-70
2022/12/27 18:59:34;;;;;;;15.20;11.27;;;7.40;38.80;;;;;;10377377;28;20878;-68
2022/12/27 19:04:38;;;;;;;14.10;11.53;;;7.40;39.40;;;;;;10370159;28;20253;-67
2022/12/27 19:09:49;;;;;;;15.27;12.30;;;7.30;39.20;;;;;;10368551;28;20222;-67
2022/12/27 19:14:53;;;;;;;16.70;12.47;;;7.20;39.00;;;;;;10377904;28;20753;-68
2022/12/27 19:20:00;;;;;;;13.17;10.23;;;7.20;39.50;;;;;;10369443;28;20222;-69
2022/12/27 19:25:07;;;;;;;14.77;11.80;;;7.10;39.50;;;;;;10367992;28;20215;-69
2022/12/27 19:30:29;;;;;;;11.43;9.63;;;7.10;39.20;;;;;;10370243;28;20595;-69
2022/12/27 19:35:33;;;;;;;10.93;8.20;;;7.00;39.00;;;;;;10371173;28;20226;-69
2022/12/27 19:40:39;;;;;;;7.47;6.77;;;6.90;39.40;;;;;;10365269;28;20890;-69
2022/12/27 19:45:42;;;;;;;9.17;8.27;;;6.80;39.70;;;;;;10367056;28;20304;-69
2022/12/27 19:50:48;;;;;;;16.13;11.40;;;6.80;39.70;;;;;;10372535;28;20269;-69
2022/12/27 19:55:53;;;;;;;18.30;11.90;;;6.80;39.50;;;;;;10367484;28;20231;-69
2022/12/27 20:00:57;;;;;;;26.97;17.80;;;6.70;39.50;;;;;;10374662;28;20825;-67
2022/12/27 20:06:01;;;;;;;20.07;15.37;;;6.70;39.50;;;;;;10375315;28;20273;-69
2022/12/27 20:11:21;;;;;;;18.13;13.80;;;6.60;39.50;;;;;;10370891;28;20296;-69
2022/12/27 20:16:25;;;;;;;13.77;11.87;;;6.60;39.60;;;;;;10369769;28;20317;-69
2022/12/27 20:21:28;;;;;;;17.53;13.00;;;6.60;39.40;;;;;;10361904;28;20246;-69
2022/12/27 20:26:33;;;;;;;16.60;13.37;;;6.50;39.50;;;;;;10369119;28;20234;-69
2022/12/27 20:31:36;;;;;;;18.40;14.27;;;6.40;39.50;;;;;;10369916;28;20233;-69
2022/12/27 20:36:47;;;;;;;16.33;12.90;;;6.40;39.70;;;;;;10369513;28;20233;-69
2022/12/27 20:41:51;;;;;;;13.73;11.60;;;6.40;39.70;;;;;;10370638;28;20635;-69
2022/12/27 20:46:54;;;;;;;9.77;8.87;;;6.40;39.50;;;;;;10368995;28;20260;-69
2022/12/27 20:51:58;;;;;;;10.27;9.23;;;6.30;39.60;;;;;;10364864;28;20226;-69
2022/12/27 20:57:02;;;;;;;10.13;9.13;;;6.30;39.70;;;;;;10366912;28;20233;-69
2022/12/27 21:02:05;;;;;;;10.03;9.03;;;6.20;39.80;;;;;;10369063;28;20242;-69
2022/12/27 21:07:09;;;;;;;9.23;8.33;;;6.20;39.80;;;;;;10368642;28;20285;-69
2022/12/27 21:12:13;;;;;;;9.57;8.10;;;6.20;39.70;;;;;;10362844;28;20230;-69
2022/12/27 21:17:16;;;;;;;8.40;7.23;;;6.20;39.50;;;;;;10368679;28;20709;-69
2022/12/27 21:22:20;;;;;;;9.27;6.67;;;6.10;39.50;;;;;;10364826;28;20643;-69
2022/12/27 21:27:24;;;;;;;9.20;8.30;;;6.00;39.60;;;;;;10364768;28;20242;-69
2022/12/27 21:32:27;;;;;;;9.93;7.67;;;6.00;39.80;;;;;;10373102;28;20706;-69
2022/12/27 21:37:30;;;;;;;8.43;7.07;;;5.90;39.70;;;;;;10367659;28;20234;-69
2022/12/27 21:42:35;;;;;;;9.13;6.90;;;5.90;39.80;;;;;;10361204;28;20226;-70
2022/12/27 21:47:38;;;;;;;7.53;6.43;;;5.90;39.80;;;;;;10366376;28;20237;-70
2022/12/27 21:52:41;;;;;;;6.87;5.97;;;5.80;39.80;;;;;;10372574;28;20225;-75
2022/12/27 21:57:45;;;;;;;6.30;5.70;;;5.80;40.00;;;;;;10364994;28;20295;-75
2022/12/27 22:02:49;;;;;;;7.90;6.93;;;5.80;40.00;;;;;;10363098;28;20619;-75
2022/12/27 22:07:54;;;;;;;7.37;6.03;;;5.80;40.00;;;;;;10363837;28;20218;-75
2022/12/27 22:12:59;;;;;;;9.07;7.50;;;5.80;39.90;;;;;;10374041;28;20227;-75
2022/12/27 22:18:02;;;;;;;12.50;10.73;;;5.80;39.80;;;;;;10368526;28;20230;-75
2022/12/27 22:23:06;;;;;;;12.70;10.13;;;5.80;39.60;;;;;;10365406;28;20227;-74
2022/12/27 22:28:11;;;;;;;15.20;10.63;;;5.70;39.40;;;;;;10377267;28;20246;-74
2022/12/27 22:33:15;;;;;;;14.03;11.53;;;5.50;39.70;;;;;;10374367;28;20230;-74
2022/12/27 22:38:18;;;;;;;10.00;8.57;;;5.50;39.90;;;;;;10370597;28;20230;-74
2022/12/27 22:43:22;;;;;;;9.73;8.70;;;5.40;39.80;;;;;;10371638;28;20234;-75
2022/12/27 22:48:25;;;;;;;7.93;7.07;;;5.40;40.10;;;;;;10377111;28;20234;-75
2022/12/27 22:53:29;;;;;;;7.63;6.80;;;5.30;40.10;;;;;;10375871;28;20226;-75
2022/12/27 22:58:34;;;;;;;6.83;6.23;;;5.30;40.20;;;;;;10370796;28;20226;-74
2022/12/27 23:03:37;;;;;;;5.57;5.07;;;5.30;40.20;;;;;;10374750;28;20954;-72
2022/12/27 23:08:40;;;;;;;8.40;6.93;;;5.30;40.10;;;;;;10371148;28;20254;-72
2022/12/27 23:13:46;;;;;;;6.63;6.03;;;5.30;40.00;;;;;;10375816;28;20233;-72
2022/12/27 23:18:49;;;;;;;8.20;6.33;;;5.30;39.70;;;;;;10369697;28;20229;-72
2022/12/27 23:23:53;;;;;;;7.23;6.60;;;5.10;39.80;;;;;;10374095;28;20222;-72
2022/12/27 23:28:58;;;;;;;6.67;5.97;;;5.10;40.20;;;;;;10374651;28;20237;-72
2022/12/27 23:34:01;;;;;;;6.90;6.30;;;5.10;40.30;;;;;;10367962;28;20222;-72
2022/12/27 23:39:05;;;;;;;6.10;5.50;;;5.10;40.40;;;;;;10375359;28;20227;-74
2022/12/27 23:44:09;;;;;;;6.33;5.73;;;5.10;40.40;;;;;;10380303;28;20234;-75
2022/12/27 23:49:13;;;;;;;6.53;5.50;;;5.10;40.30;;;;;;10374290;28;20659;-74
2022/12/27 23:54:16;;;;;;;7.60;6.80;;;5.10;40.20;;;;;;10369630;28;20225;-75
2022/12/27 23:59:21;;;;;;;7.93;6.30;;;5.10;40.10;;;;;;10364484;28;20238;-74
